KBIH Airport (Bishop) Information

FAA: BIH - ICAO: KBIH

KBIH Airport Location

State California
County Inyo
City Bishop
KBIH Airport is 2 miles east of Bishop, CA.
Latitude 37-22-23.2000N
Longitude 118-21-49.0000W
Elevation 4,124ft

KBIH Airport METARs

METAR KBIH 240756Z AUTO 27007KT 10SM CLR 18/M04 A3014 RMK AO2 SLP157 T01781039 403280100
Altimeter 30.14"
Temperature 17.8°C (64.0°F)
Wind 270° at 7KT
Clouds Skies are clear.
Visibility 10.0mi
Time observed: 2021-09-24T07:56:00Z

KBIH Airport Details

Status Operational
Activation April 1940
Ownership Public
Usage Public
Chart SAN FRANCISCO
ATC on-site No
Beacon schedule sunset-sunrise
Beacon color clear green

KBIH Airport Contacts

Owner CITY OF LOS ANGELES, DEPT OF PUBLIC
Owner address 300 MANDICH STREET, BISHOP, CA 93514
Owner phone (760) 873-0342
Manager CLARENCE WILLIAMS
Manager address PO BOX 474, BIGGS, CA 95917
Manager phone 530-682-2155

KBIH Airport (Bishop) Radio Frequencies

KBIH (Airport) Radio Frequencies

UNICOM 123
Common traffic advisory frequency (CTAF) 123